Time,TemperatureF,DewpointF,PressureIn,WindDirection,WindDirectionDegrees,WindSpeedMPH,WindSpeedGustMPH,Humidity,HourlyPrecipIn,Conditions,Clouds,dailyrainin,SolarRadiationWatts/m^2,SoftwareType,DateUTC
2013-02-10 00:09:00,45.5,37.0,30.14,ENE,75,4.0,7.0,71,0.00,,,0.00,0,weatherlink.com 1.10,2013-02-10 08:09:00,
2013-02-10 00:25:00,45.9,37.0,30.14,ENE,69,2.0,5.0,70,0.00,,,0.00,0,weatherlink.com 1.10,2013-02-10 08:25:00,
2013-02-10 00:40:00,45.7,38.0,30.14,ENE,69,0.0,2.0,75,0.00,,,0.00,0,weatherlink.com 1.10,2013-02-10 08:40:00,
2013-02-10 00:55:00,45.1,38.0,30.14,ENE,69,2.0,2.0,75,0.00,,,0.00,0,weatherlink.com 1.10,2013-02-10 08:55:00,
2013-02-10 01:10:00,44.9,38.0,30.13,ENE,69,0.0,2.0,77,0.00,,,0.00,0,weatherlink.com 1.10,2013-02-10 09:10:00,
2013-02-10 01:25:00,44.5,38.0,30.13,ENE,69,0.0,1.0,79,0.00,,,0.00,0,weatherlink.com 1.10,2013-02-10 09:25:00,
2013-02-10 01:40:00,43.8,37.0,30.14,ENE,69,1.0,1.0,78,0.00,,,0.00,0,weatherlink.com 1.10,2013-02-10 09:40:00,
2013-02-10 01:55:00,43.1,36.0,30.14,ENE,69,2.0,3.0,76,0.00,,,0.00,0,weatherlink.com 1.10,2013-02-10 09:55:00,
2013-02-10 02:10:00,43.7,37.0,30.14,ENE,69,0.0,3.0,76,0.00,,,0.00,0,weatherlink.com 1.10,2013-02-10 10:10:00,
2013-02-10 02:25:00,43.7,37.0,30.13,ENE,69,0.0,3.0,76,0.00,,,0.00,0,weatherlink.com 1.10,2013-02-10 10:25:00,
2013-02-10 02:40:00,43.3,35.0,30.13,ENE,69,0.0,1.0,73,0.00,,,0.00,0,weatherlink.com 1.10,2013-02-10 10:40:00,
2013-02-10 02:55:00,43.5,36.0,30.13,ENE,69,1.0,2.0,76,0.00,,,0.00,0,weatherlink.com 1.10,2013-02-10 10:55:00,
2013-02-10 03:10:00,43.3,34.0,30.12,ENE,69,0.0,1.0,71,0.00,,,0.00,0,weatherlink.com 1.10,2013-02-10 11:10:00,
2013-02-10 03:25:00,43.3,36.0,30.11,ENE,69,1.0,1.0,74,0.00,,,0.00,0,weatherlink.com 1.10,2013-02-10 11:25:00,
2013-02-10 03:40:00,43.3,36.0,30.11,ENE,69,0.0,1.0,74,0.00,,,0.00,0,weatherlink.com 1.10,2013-02-10 11:40:00,
2013-02-10 03:55:00,42.8,35.0,30.12,ENE,69,0.0,1.0,75,0.00,,,0.00,0,weatherlink.com 1.10,2013-02-10 11:55:00,
2013-02-10 04:10:00,42.4,35.0,30.11,ENE,69,0.0,1.0,74,0.00,,,0.00,0,weatherlink.com 1.10,2013-02-10 12:10:00,
2013-02-10 04:25:00,42.2,37.0,30.12,ENE,69,2.0,3.0,83,0.00,,,0.00,0,weatherlink.com 1.10,2013-02-10 12:25:00,
2013-02-10 04:40:00,42.3,38.0,30.12,ENE,69,0.0,3.0,84,0.00,,,0.00,0,weatherlink.com 1.10,2013-02-10 12:40:00,
2013-02-10 04:55:00,42.6,38.0,30.13,ENE,69,0.0,2.0,84,0.00,,,0.00,0,weatherlink.com 1.10,2013-02-10 12:55:00,
2013-02-10 05:10:00,42.8,37.0,30.12,ENE,69,0.0,3.0,81,0.00,,,0.00,0,weatherlink.com 1.10,2013-02-10 13:10:00,
2013-02-10 05:25:00,43.0,37.0,30.12,ENE,69,0.0,2.0,80,0.00,,,0.00,0,weatherlink.com 1.10,2013-02-10 13:25:00,
2013-02-10 05:40:00,42.6,38.0,30.12,ENE,69,0.0,1.0,82,0.00,,,0.00,0,weatherlink.com 1.10,2013-02-10 13:40:00,
2013-02-10 05:55:00,42.2,37.0,30.13,ENE,69,2.0,2.0,81,0.00,,,0.00,0,weatherlink.com 1.10,2013-02-10 13:55:00,
2013-02-10 06:10:00,42.0,36.0,30.13,ENE,69,0.0,2.0,79,0.00,,,0.00,0,weatherlink.com 1.10,2013-02-10 14:10:00,
2013-02-10 06:25:00,41.6,35.0,30.14,ENE,69,0.0,3.0,78,0.00,,,0.00,0,weatherlink.com 1.10,2013-02-10 14:25:00,
2013-02-10 06:40:00,41.5,34.0,30.13,ENE,69,0.0,2.0,76,0.00,,,0.00,0,weatherlink.com 1.10,2013-02-10 14:40:00,
2013-02-10 06:55:00,41.7,34.0,30.13,ENE,69,0.0,1.0,75,0.00,,,0.00,0,weatherlink.com 1.10,2013-02-10 14:55:00,
2013-02-10 07:10:00,41.9,34.0,30.13,ENE,69,0.0,1.0,74,0.00,,,0.00,11,weatherlink.com 1.10,2013-02-10 15:10:00,
2013-02-10 07:26:00,42.4,35.0,30.13,ENE,69,0.0,2.0,74,0.00,,,0.00,28,weatherlink.com 1.10,2013-02-10 15:26:00,
2013-02-10 07:41:00,44.3,35.0,30.14,ENE,69,1.0,2.0,70,0.00,,,0.00,67,weatherlink.com 1.10,2013-02-10 15:41:00,
2013-02-10 07:55:00,46.6,36.0,30.14,ENE,69,0.0,1.0,68,0.00,,,0.00,114,weatherlink.com 1.10,2013-02-10 15:55:00,
2013-02-10 08:10:00,48.7,37.0,30.14,ENE,69,0.0,1.0,65,0.00,,,0.00,176,weatherlink.com 1.10,2013-02-10 16:10:00,
2013-02-10 08:26:00,51.2,39.0,30.14,ENE,69,0.0,1.0,63,0.00,,,0.00,225,weatherlink.com 1.10,2013-02-10 16:26:00,
2013-02-10 08:41:00,52.8,39.0,30.14,ENE,69,0.0,2.0,60,0.00,,,0.00,272,weatherlink.com 1.10,2013-02-10 16:41:00,
2013-02-10 08:56:00,54.1,40.0,30.14,ENE,69,0.0,2.0,60,0.00,,,0.00,325,weatherlink.com 1.10,2013-02-10 16:56:00,
2013-02-10 09:11:00,56.4,39.0,30.15,ENE,69,2.0,2.0,53,0.00,,,0.00,378,weatherlink.com 1.10,2013-02-10 17:11:00,
2013-02-10 09:26:00,56.4,43.0,30.14,North,360,2.0,4.0,61,0.00,,,0.00,418,weatherlink.com 1.10,2013-02-10 17:26:00,
2013-02-10 09:41:00,57.1,44.0,30.15,NNW,346,2.0,4.0,62,0.00,,,0.00,469,weatherlink.com 1.10,2013-02-10 17:41:00,
2013-02-10 09:56:00,58.7,44.0,30.15,NNW,346,0.0,3.0,58,0.00,,,0.00,522,weatherlink.com 1.10,2013-02-10 17:56:00,
2013-02-10 10:11:00,59.6,43.0,30.14,NNW,346,0.0,2.0,54,0.00,,,0.00,566,weatherlink.com 1.10,2013-02-10 18:11:00,
2013-02-10 10:26:00,59.3,42.0,30.15,NNW,346,2.0,3.0,54,0.00,,,0.00,561,weatherlink.com 1.10,2013-02-10 18:26:00,
2013-02-10 10:41:00,58.4,41.0,30.15,NW,315,1.0,5.0,53,0.00,,,0.00,573,weatherlink.com 1.10,2013-02-10 18:41:00,
2013-02-10 10:56:00,58.6,42.0,30.14,NW,309,1.0,4.0,55,0.00,,,0.00,608,weatherlink.com 1.10,2013-02-10 18:56:00,
2013-02-10 11:11:00,58.7,42.0,30.14,West,273,3.0,6.0,55,0.00,,,0.00,631,weatherlink.com 1.10,2013-02-10 19:11:00,
2013-02-10 11:26:00,57.1,43.0,30.13,WSW,244,5.0,5.0,60,0.00,,,0.00,659,weatherlink.com 1.10,2013-02-10 19:26:00,
2013-02-10 11:41:00,57.3,45.0,30.13,WSW,252,2.0,6.0,63,0.00,,,0.00,682,weatherlink.com 1.10,2013-02-10 19:41:00,
2013-02-10 11:56:00,59.2,46.0,30.11,WSW,252,0.0,5.0,61,0.00,,,0.00,673,weatherlink.com 1.10,2013-02-10 19:56:00,
2013-02-10 12:12:00,60.1,45.0,30.11,WSW,254,1.0,4.0,58,0.00,,,0.00,675,weatherlink.com 1.10,2013-02-10 20:12:00,
2013-02-10 12:26:00,60.7,44.0,30.10,West,278,3.0,5.0,55,0.00,,,0.00,689,weatherlink.com 1.10,2013-02-10 20:26:00,
2013-02-10 12:41:00,61.0,44.0,30.09,West,278,0.0,3.0,54,0.00,,,0.00,679,weatherlink.com 1.10,2013-02-10 20:41:00,
2013-02-10 12:56:00,61.7,45.0,30.09,West,277,2.0,5.0,54,0.00,,,0.00,675,weatherlink.com 1.10,2013-02-10 20:56:00,
2013-02-10 13:11:00,61.3,45.0,30.08,West,277,0.0,5.0,55,0.00,,,0.00,666,weatherlink.com 1.10,2013-02-10 21:11:00,
2013-02-10 13:26:00,62.1,45.0,30.08,West,279,4.0,5.0,53,0.00,,,0.00,649,weatherlink.com 1.10,2013-02-10 21:26:00,
2013-02-10 13:41:00,62.5,44.0,30.08,West,277,2.0,6.0,51,0.00,,,0.00,633,weatherlink.com 1.10,2013-02-10 21:41:00,
2013-02-10 13:57:00,60.4,43.0,30.08,WNW,285,5.0,7.0,53,0.00,,,0.00,610,weatherlink.com 1.10,2013-02-10 21:57:00,
2013-02-10 14:11:00,62.2,44.0,30.08,WNW,284,2.0,6.0,51,0.00,,,0.00,582,weatherlink.com 1.10,2013-02-10 22:11:00,
2013-02-10 14:27:00,60.7,45.0,30.07,West,275,0.0,7.0,56,0.00,,,0.00,555,weatherlink.com 1.10,2013-02-10 22:27:00,
2013-02-10 14:42:00,61.3,45.0,30.07,West,275,2.0,4.0,56,0.00,,,0.00,520,weatherlink.com 1.10,2013-02-10 22:42:00,
2013-02-10 14:57:00,61.4,45.0,30.07,West,276,2.0,6.0,55,0.00,,,0.00,485,weatherlink.com 1.10,2013-02-10 22:57:00,
2013-02-10 15:12:00,60.8,46.0,30.07,West,277,2.0,5.0,58,0.00,,,0.00,443,weatherlink.com 1.10,2013-02-10 23:12:00,
2013-02-10 15:27:00,61.6,46.0,30.07,WNW,294,0.0,5.0,57,0.00,,,0.00,406,weatherlink.com 1.10,2013-02-10 23:27:00,
2013-02-10 15:42:00,61.3,46.0,30.07,West,273,1.0,5.0,57,0.00,,,0.00,360,weatherlink.com 1.10,2013-02-10 23:42:00,
2013-02-10 15:57:00,61.4,46.0,30.07,West,273,3.0,3.0,57,0.00,,,0.00,315,weatherlink.com 1.10,2013-02-10 23:57:00,
2013-02-10 16:12:00,61.1,46.0,30.07,West,273,0.0,4.0,58,0.00,,,0.00,260,weatherlink.com 1.10,2013-02-11 00:12:00,
2013-02-10 16:27:00,60.8,46.0,30.08,West,273,1.0,6.0,59,0.00,,,0.00,202,weatherlink.com 1.10,2013-02-11 00:27:00,
2013-02-10 16:42:00,59.1,46.0,30.08,West,273,0.0,4.0,63,0.00,,,0.00,141,weatherlink.com 1.10,2013-02-11 00:42:00,
2013-02-10 16:57:00,58.4,46.0,30.07,West,273,1.0,4.0,64,0.00,,,0.00,88,weatherlink.com 1.10,2013-02-11 00:57:00,
2013-02-10 17:12:00,58.5,47.0,30.07,West,273,2.0,2.0,65,0.00,,,0.00,46,weatherlink.com 1.10,2013-02-11 01:12:00,
2013-02-10 17:27:00,56.6,46.0,30.07,West,273,0.0,1.0,69,0.00,,,0.00,21,weatherlink.com 1.10,2013-02-11 01:27:00,
2013-02-10 17:42:00,55.3,46.0,30.07,West,273,0.0,2.0,71,0.00,,,0.00,5,weatherlink.com 1.10,2013-02-11 01:42:00,
2013-02-10 17:57:00,54.1,45.0,30.07,West,273,0.0,0.0,72,0.00,,,0.00,0,weatherlink.com 1.10,2013-02-11 01:57:00,
2013-02-10 18:12:00,52.7,45.0,30.07,West,273,0.0,0.0,74,0.00,,,0.00,0,weatherlink.com 1.10,2013-02-11 02:12:00,
2013-02-10 18:27:00,51.5,44.0,30.08,West,273,0.0,1.0,76,0.00,,,0.00,0,weatherlink.com 1.10,2013-02-11 02:27:00,
2013-02-10 18:42:00,50.5,44.0,30.08,West,273,0.0,0.0,78,0.00,,,0.00,0,weatherlink.com 1.10,2013-02-11 02:42:00,
2013-02-10 18:57:00,49.7,44.0,30.09,West,273,0.0,0.0,81,0.00,,,0.00,0,weatherlink.com 1.10,2013-02-11 02:57:00,
2013-02-10 19:12:00,49.0,44.0,30.09,West,273,0.0,0.0,84,0.00,,,0.00,0,weatherlink.com 1.10,2013-02-11 03:12:00,
2013-02-10 19:27:00,48.3,44.0,30.09,West,273,0.0,1.0,84,0.00,,,0.00,0,weatherlink.com 1.10,2013-02-11 03:27:00,
2013-02-10 19:42:00,47.9,44.0,30.09,West,273,0.0,0.0,87,0.00,,,0.00,0,weatherlink.com 1.10,2013-02-11 03:42:00,
2013-02-10 19:57:00,47.8,44.0,30.09,West,273,0.0,1.0,87,0.00,,,0.00,0,weatherlink.com 1.10,2013-02-11 03:57:00,
2013-02-10 20:12:00,48.0,45.0,30.09,West,273,0.0,1.0,89,0.00,,,0.00,0,weatherlink.com 1.10,2013-02-11 04:12:00,
2013-02-10 20:27:00,47.9,45.0,30.09,West,273,0.0,1.0,89,0.00,,,0.00,0,weatherlink.com 1.10,2013-02-11 04:27:00,
2013-02-10 20:42:00,47.7,44.0,30.10,West,273,0.0,3.0,88,0.00,,,0.00,0,weatherlink.com 1.10,2013-02-11 04:42:00,
2013-02-10 20:57:00,47.5,44.0,30.10,West,273,0.0,3.0,88,0.00,,,0.00,0,weatherlink.com 1.10,2013-02-11 04:57:00,
2013-02-10 21:12:00,47.3,43.0,30.10,North,5,0.0,4.0,86,0.00,,,0.00,0,weatherlink.com 1.10,2013-02-11 05:12:00,
2013-02-10 21:27:00,47.4,43.0,30.10,NNE,23,0.0,4.0,84,0.00,,,0.00,0,weatherlink.com 1.10,2013-02-11 05:27:00,
2013-02-10 21:42:00,47.4,43.0,30.10,NNE,23,0.0,2.0,84,0.00,,,0.00,0,weatherlink.com 1.10,2013-02-11 05:42:00,
2013-02-10 21:57:00,47.1,43.0,30.10,NNE,23,0.0,1.0,84,0.00,,,0.00,0,weatherlink.com 1.10,2013-02-11 05:57:00,
2013-02-10 22:12:00,46.7,42.0,30.09,NNE,23,1.0,4.0,82,0.00,,,0.00,0,weatherlink.com 1.10,2013-02-11 06:12:00,
2013-02-10 22:27:00,46.4,41.0,30.09,NNE,23,0.0,1.0,81,0.00,,,0.00,0,weatherlink.com 1.10,2013-02-11 06:27:00,
2013-02-10 22:42:00,45.9,41.0,30.09,NNE,23,0.0,2.0,82,0.00,,,0.00,0,weatherlink.com 1.10,2013-02-11 06:42:00,
2013-02-10 22:57:00,46.3,41.0,30.09,NNE,23,1.0,3.0,83,0.00,,,0.00,0,weatherlink.com 1.10,2013-02-11 06:57:00,
2013-02-10 23:12:00,46.2,42.0,30.09,NNE,23,0.0,1.0,85,0.00,,,0.00,0,weatherlink.com 1.10,2013-02-11 07:12:00,
2013-02-10 23:27:00,45.9,42.0,30.10,NNE,23,0.0,3.0,85,0.00,,,0.00,0,weatherlink.com 1.10,2013-02-11 07:27:00,
2013-02-10 23:42:00,45.8,42.0,30.10,NNE,23,0.0,3.0,86,0.00,,,0.00,0,weatherlink.com 1.10,2013-02-11 07:42:00,
2013-02-10 23:57:00,45.5,42.0,30.10,NNE,23,1.0,3.0,88,0.00,,,0.00,0,weatherlink.com 1.10,2013-02-11 07:57:00,